sensor_id;sensor_type;location;lat;lon;timestamp;pressure;altitude;pressure_sealevel;temperature;humidity
43480;BME280;29067;35.492;-97.520;2023-05-14T00:00:26;97318.93;;;22.26;73.58
43480;BME280;29067;35.492;-97.520;2023-05-14T00:02:58;97313.86;;;20.81;77.54
43480;BME280;29067;35.492;-97.520;2023-05-14T00:05:27;97317.22;;;20.95;77.21
43480;BME280;29067;35.492;-97.520;2023-05-14T00:07:55;97322.74;;;21.88;76.71
43480;BME280;29067;35.492;-97.520;2023-05-14T00:10:25;97324.06;;;21.61;76.51
43480;BME280;29067;35.492;-97.520;2023-05-14T00:12:53;97322.27;;;20.60;78.87
43480;BME280;29067;35.492;-97.520;2023-05-14T00:15:21;97321.03;;;20.74;79.11
43480;BME280;29067;35.492;-97.520;2023-05-14T00:17:50;97330.23;;;20.14;84.52
43480;BME280;29067;35.492;-97.520;2023-05-14T00:20:19;97336.60;;;21.08;78.30
43480;BME280;29067;35.492;-97.520;2023-05-14T00:22:48;97337.18;;;21.17;77.67
43480;BME280;29067;35.492;-97.520;2023-05-14T00:25:17;97333.65;;;21.10;78.60
43480;BME280;29067;35.492;-97.520;2023-05-14T00:27:45;97333.32;;;21.24;79.13
43480;BME280;29067;35.492;-97.520;2023-05-14T00:30:13;97323.16;;;22.07;77.04
43480;BME280;29067;35.492;-97.520;2023-05-14T00:32:46;97310.03;;;22.02;77.58
43480;BME280;29067;35.492;-97.520;2023-05-14T00:35:14;97305.56;;;19.79;80.39
43480;BME280;29067;35.492;-97.520;2023-05-14T00:37:42;97332.40;;;19.71;86.85
43480;BME280;29067;35.492;-97.520;2023-05-14T00:40:11;97326.42;;;21.69;80.14
43480;BME280;29067;35.492;-97.520;2023-05-14T00:42:45;97321.11;;;21.48;80.08
43480;BME280;29067;35.492;-97.520;2023-05-14T00:45:13;97325.23;;;20.60;78.25
43480;BME280;29067;35.492;-97.520;2023-05-14T00:47:42;97320.94;;;21.53;78.15
43480;BME280;29067;35.492;-97.520;2023-05-14T00:50:11;97322.46;;;20.65;84.50
43480;BME280;29067;35.492;-97.520;2023-05-14T00:52:41;97328.69;;;21.21;82.66
43480;BME280;29067;35.492;-97.520;2023-05-14T00:55:12;97337.98;;;19.98;83.07
43480;BME280;29067;35.492;-97.520;2023-05-14T00:57:40;97342.27;;;20.69;82.15
43480;BME280;29067;35.492;-97.520;2023-05-14T01:00:09;97357.05;;;19.76;82.76
43480;BME280;29067;35.492;-97.520;2023-05-14T01:02:37;97362.13;;;20.82;78.13
43480;BME280;29067;35.492;-97.520;2023-05-14T01:05:05;97371.21;;;21.45;76.13
43480;BME280;29067;35.492;-97.520;2023-05-14T01:07:38;97375.92;;;20.14;81.74
43480;BME280;29067;35.492;-97.520;2023-05-14T01:10:14;97373.88;;;20.60;82.33
43480;BME280;29067;35.492;-97.520;2023-05-14T01:12:51;97378.00;;;19.91;83.07
43480;BME280;29067;35.492;-97.520;2023-05-14T01:15:27;97383.13;;;20.46;83.56
43480;BME280;29067;35.492;-97.520;2023-05-14T01:18:00;97391.08;;;19.87;85.03
43480;BME280;29067;35.492;-97.520;2023-05-14T01:20:30;97394.33;;;20.80;80.15
43480;BME280;29067;35.492;-97.520;2023-05-14T01:22:59;97404.02;;;20.98;81.98
43480;BME280;29067;35.492;-97.520;2023-05-14T01:25:27;97412.85;;;19.96;86.58
43480;BME280;29067;35.492;-97.520;2023-05-14T01:28:02;97416.49;;;19.90;83.21
43480;BME280;29067;35.492;-97.520;2023-05-14T01:30:35;97416.79;;;20.57;81.42
43480;BME280;29067;35.492;-97.520;2023-05-14T01:33:06;97415.39;;;21.44;79.78
43480;BME280;29067;35.492;-97.520;2023-05-14T01:35:36;97413.37;;;21.12;79.25
43480;BME280;29067;35.492;-97.520;2023-05-14T01:38:08;97421.37;;;20.68;79.55
43480;BME280;29067;35.492;-97.520;2023-05-14T01:40:38;97430.88;;;21.38;77.41
43480;BME280;29067;35.492;-97.520;2023-05-14T01:43:06;97432.24;;;20.12;80.45
43480;BME280;29067;35.492;-97.520;2023-05-14T01:45:35;97430.72;;;20.91;77.45
43480;BME280;29067;35.492;-97.520;2023-05-14T01:48:04;97430.75;;;20.52;79.45
43480;BME280;29067;35.492;-97.520;2023-05-14T01:50:34;97424.64;;;20.80;77.89
43480;BME280;29067;35.492;-97.520;2023-05-14T01:53:03;97426.32;;;20.80;78.14
43480;BME280;29067;35.492;-97.520;2023-05-14T01:55:31;97427.09;;;20.94;79.39
43480;BME280;29067;35.492;-97.520;2023-05-14T01:57:59;97423.66;;;21.41;78.29
43480;BME280;29067;35.492;-97.520;2023-05-14T02:00:27;97425.45;;;21.09;77.89
43480;BME280;29067;35.492;-97.520;2023-05-14T02:02:55;97425.63;;;20.46;80.21
43480;BME280;29067;35.492;-97.520;2023-05-14T02:05:24;97426.97;;;20.77;78.42
43480;BME280;29067;35.492;-97.520;2023-05-14T02:07:51;97432.99;;;19.03;85.69
43480;BME280;29067;35.492;-97.520;2023-05-14T02:10:20;97442.16;;;18.82;92.42
43480;BME280;29067;35.492;-97.520;2023-05-14T02:12:48;97446.18;;;18.69;93.19
43480;BME280;29067;35.492;-97.520;2023-05-14T02:15:17;97440.75;;;20.04;87.18
43480;BME280;29067;35.492;-97.520;2023-05-14T02:17:45;97441.68;;;19.38;85.21
43480;BME280;29067;35.492;-97.520;2023-05-14T02:20:18;97449.46;;;19.25;87.98
43480;BME280;29067;35.492;-97.520;2023-05-14T02:22:47;97448.33;;;19.37;83.54
43480;BME280;29067;35.492;-97.520;2023-05-14T02:25:15;97440.04;;;19.36;85.83
43480;BME280;29067;35.492;-97.520;2023-05-14T02:27:43;97435.88;;;19.82;83.13
43480;BME280;29067;35.492;-97.520;2023-05-14T02:30:11;97436.32;;;19.52;82.93
43480;BME280;29067;35.492;-97.520;2023-05-14T02:32:39;97440.07;;;19.74;80.21
43480;BME280;29067;35.492;-97.520;2023-05-14T02:35:08;97441.05;;;19.75;81.68
43480;BME280;29067;35.492;-97.520;2023-05-14T02:37:37;97435.00;;;19.40;83.24
43480;BME280;29067;35.492;-97.520;2023-05-14T02:40:08;97433.04;;;19.86;80.73
43480;BME280;29067;35.492;-97.520;2023-05-14T02:42:37;97435.14;;;19.43;81.95
43480;BME280;29067;35.492;-97.520;2023-05-14T02:45:06;97437.98;;;18.70;83.08
43480;BME280;29067;35.492;-97.520;2023-05-14T02:47:35;97440.76;;;19.06;81.96
43480;BME280;29067;35.492;-97.520;2023-05-14T02:50:04;97441.37;;;18.75;82.09
43480;BME280;29067;35.492;-97.520;2023-05-14T02:52:32;97439.03;;;19.57;78.73
43480;BME280;29067;35.492;-97.520;2023-05-14T02:55:01;97439.82;;;19.51;79.07
43480;BME280;29067;35.492;-97.520;2023-05-14T02:57:34;97445.16;;;18.97;79.91
43480;BME280;29067;35.492;-97.520;2023-05-14T03:00:08;97445.23;;;18.76;81.15
43480;BME280;29067;35.492;-97.520;2023-05-14T03:02:37;97445.42;;;19.18;81.04
43480;BME280;29067;35.492;-97.520;2023-05-14T03:05:05;97440.43;;;19.63;77.01
43480;BME280;29067;35.492;-97.520;2023-05-14T03:07:33;97443.07;;;19.82;76.89
43480;BME280;29067;35.492;-97.520;2023-05-14T03:10:02;97449.16;;;19.11;79.53
43480;BME280;29067;35.492;-97.520;2023-05-14T03:12:30;97450.11;;;18.46;79.35
43480;BME280;29067;35.492;-97.520;2023-05-14T03:14:59;97455.35;;;20.12;74.97
43480;BME280;29067;35.492;-97.520;2023-05-14T03:17:27;97462.02;;;20.17;75.41
43480;BME280;29067;35.492;-97.520;2023-05-14T03:19:55;97469.62;;;20.37;75.08
43480;BME280;29067;35.492;-97.520;2023-05-14T03:22:22;97482.12;;;20.02;75.18
43480;BME280;29067;35.492;-97.520;2023-05-14T03:24:50;97490.24;;;19.33;74.81
43480;BME280;29067;35.492;-97.520;2023-05-14T03:27:17;97495.68;;;19.79;75.08
43480;BME280;29067;35.492;-97.520;2023-05-14T03:29:45;97500.39;;;19.88;75.42
43480;BME280;29067;35.492;-97.520;2023-05-14T03:32:13;97505.18;;;19.63;75.18
43480;BME280;29067;35.492;-97.520;2023-05-14T03:34:41;97510.65;;;19.28;78.26
43480;BME280;29067;35.492;-97.520;2023-05-14T03:37:11;97508.36;;;19.55;75.97
43480;BME280;29067;35.492;-97.520;2023-05-14T03:39:39;97499.15;;;19.72;75.96
43480;BME280;29067;35.492;-97.520;2023-05-14T03:42:07;97497.49;;;20.79;72.35
43480;BME280;29067;35.492;-97.520;2023-05-14T03:44:36;97506.32;;;20.55;75.36
43480;BME280;29067;35.492;-97.520;2023-05-14T03:47:04;97501.99;;;21.12;71.87
43480;BME280;29067;35.492;-97.520;2023-05-14T03:49:33;97505.21;;;18.73;77.46
43480;BME280;29067;35.492;-97.520;2023-05-14T03:52:01;97501.69;;;19.63;74.59
43480;BME280;29067;35.492;-97.520;2023-05-14T03:54:29;97505.44;;;19.79;73.85
43480;BME280;29067;35.492;-97.520;2023-05-14T03:56:58;97507.18;;;19.65;77.11
43480;BME280;29067;35.492;-97.520;2023-05-14T03:59:26;97505.28;;;20.47;73.30
43480;BME280;29067;35.492;-97.520;2023-05-14T04:01:54;97513.09;;;18.64;77.34
43480;BME280;29067;35.492;-97.520;2023-05-14T04:04:21;97507.80;;;19.39;74.78
43480;BME280;29067;35.492;-97.520;2023-05-14T04:06:50;97509.03;;;18.60;76.81
43480;BME280;29067;35.492;-97.520;2023-05-14T04:09:17;97510.59;;;19.57;76.42
43480;BME280;29067;35.492;-97.520;2023-05-14T04:11:45;97517.32;;;19.04;75.17
43480;BME280;29067;35.492;-97.520;2023-05-14T04:14:14;97518.66;;;18.88;76.83
43480;BME280;29067;35.492;-97.520;2023-05-14T04:16:42;97514.36;;;19.35;75.49
43480;BME280;29067;35.492;-97.520;2023-05-14T04:19:09;97511.88;;;18.79;76.01
43480;BME280;29067;35.492;-97.520;2023-05-14T04:21:38;97514.72;;;19.33;75.84
43480;BME280;29067;35.492;-97.520;2023-05-14T04:24:07;97511.86;;;18.69;76.93
43480;BME280;29067;35.492;-97.520;2023-05-14T04:26:35;97506.27;;;18.94;76.50
43480;BME280;29067;35.492;-97.520;2023-05-14T04:29:03;97504.40;;;20.06;73.26
43480;BME280;29067;35.492;-97.520;2023-05-14T04:31:33;97506.52;;;19.87;75.32
43480;BME280;29067;35.492;-97.520;2023-05-14T04:34:03;97503.21;;;20.00;74.69
43480;BME280;29067;35.492;-97.520;2023-05-14T04:36:31;97510.59;;;18.29;79.52
43480;BME280;29067;35.492;-97.520;2023-05-14T04:39:00;97512.92;;;18.51;79.28
43480;BME280;29067;35.492;-97.520;2023-05-14T04:41:28;97510.39;;;19.64;74.62
43480;BME280;29067;35.492;-97.520;2023-05-14T04:43:57;97524.00;;;18.24;78.68
43480;BME280;29067;35.492;-97.520;2023-05-14T04:46:26;97518.19;;;19.00;78.30
43480;BME280;29067;35.492;-97.520;2023-05-14T04:48:54;97522.13;;;18.72;79.83
43480;BME280;29067;35.492;-97.520;2023-05-14T04:51:22;97521.68;;;18.76;80.54
43480;BME280;29067;35.492;-97.520;2023-05-14T04:53:50;97523.90;;;17.90;83.11
43480;BME280;29067;35.492;-97.520;2023-05-14T04:56:19;97527.07;;;17.21;87.16
43480;BME280;29067;35.492;-97.520;2023-05-14T04:58:47;97522.96;;;17.14;87.10
43480;BME280;29067;35.492;-97.520;2023-05-14T05:01:15;97525.95;;;17.59;85.43
43480;BME280;29067;35.492;-97.520;2023-05-14T05:03:43;97525.02;;;16.50;94.14
43480;BME280;29067;35.492;-97.520;2023-05-14T05:06:12;97519.32;;;17.54;91.41
43480;BME280;29067;35.492;-97.520;2023-05-14T05:08:45;97528.72;;;15.68;100.00
43480;BME280;29067;35.492;-97.520;2023-05-14T05:11:13;97524.73;;;15.66;100.00
43480;BME280;29067;35.492;-97.520;2023-05-14T05:13:40;97518.44;;;17.08;94.95
43480;BME280;29067;35.492;-97.520;2023-05-14T05:16:09;97518.87;;;17.87;90.84
43480;BME280;29067;35.492;-97.520;2023-05-14T05:18:37;97522.00;;;16.15;100.00
43480;BME280;29067;35.492;-97.520;2023-05-14T05:21:06;97520.75;;;17.13;100.00
43480;BME280;29067;35.492;-97.520;2023-05-14T05:23:34;97513.58;;;16.96;96.76
43480;BME280;29067;35.492;-97.520;2023-05-14T05:26:03;97507.74;;;17.59;93.67
43480;BME280;29067;35.492;-97.520;2023-05-14T05:28:31;97506.07;;;17.22;96.51
43480;BME280;29067;35.492;-97.520;2023-05-14T05:31:00;97509.99;;;16.65;97.35
43480;BME280;29067;35.492;-97.520;2023-05-14T05:33:28;97510.85;;;17.48;95.58
43480;BME280;29067;35.492;-97.520;2023-05-14T05:35:56;97514.29;;;16.51;98.55
43480;BME280;29067;35.492;-97.520;2023-05-14T05:38:25;97512.55;;;16.55;99.25
43480;BME280;29067;35.492;-97.520;2023-05-14T05:40:53;97512.28;;;15.51;100.00
43480;BME280;29067;35.492;-97.520;2023-05-14T05:43:21;97513.25;;;16.02;100.00
43480;BME280;29067;35.492;-97.520;2023-05-14T05:45:50;97524.89;;;15.13;100.00
43480;BME280;29067;35.492;-97.520;2023-05-14T05:48:18;97529.79;;;15.90;100.00
43480;BME280;29067;35.492;-97.520;2023-05-14T05:50:47;97530.77;;;16.95;100.00
43480;BME280;29067;35.492;-97.520;2023-05-14T05:53:16;97522.28;;;17.09;98.94
43480;BME280;29067;35.492;-97.520;2023-05-14T05:55:44;97516.83;;;17.74;98.64
43480;BME280;29067;35.492;-97.520;2023-05-14T05:58:11;97518.93;;;17.53;95.93
43480;BME280;29067;35.492;-97.520;2023-05-14T06:00:39;97532.59;;;17.19;97.81
43480;BME280;29067;35.492;-97.520;2023-05-14T06:03:07;97540.15;;;16.44;100.00
43480;BME280;29067;35.492;-97.520;2023-05-14T06:05:35;97534.67;;;18.50;91.69
43480;BME280;29067;35.492;-97.520;2023-05-14T06:08:02;97535.98;;;18.17;89.61
43480;BME280;29067;35.492;-97.520;2023-05-14T06:10:31;97543.92;;;16.58;97.02
43480;BME280;29067;35.492;-97.520;2023-05-14T06:13:00;97541.83;;;19.19;88.09
43480;BME280;29067;35.492;-97.520;2023-05-14T06:15:27;97541.16;;;17.97;91.30
43480;BME280;29067;35.492;-97.520;2023-05-14T06:17:56;97546.11;;;18.51;89.58
43480;BME280;29067;35.492;-97.520;2023-05-14T06:20:23;97549.35;;;19.49;83.86
43480;BME280;29067;35.492;-97.520;2023-05-14T06:22:52;97548.95;;;18.76;86.05
43480;BME280;29067;35.492;-97.520;2023-05-14T06:25:20;97550.62;;;18.30;85.96
43480;BME280;29067;35.492;-97.520;2023-05-14T06:27:48;97550.10;;;18.86;82.64
43480;BME280;29067;35.492;-97.520;2023-05-14T06:30:16;97552.08;;;19.63;80.62
43480;BME280;29067;35.492;-97.520;2023-05-14T06:32:43;97554.69;;;19.03;80.48
43480;BME280;29067;35.492;-97.520;2023-05-14T06:35:11;97553.34;;;20.58;77.22
43480;BME280;29067;35.492;-97.520;2023-05-14T06:37:38;97550.42;;;19.98;75.78
43480;BME280;29067;35.492;-97.520;2023-05-14T06:40:09;97557.10;;;18.81;82.16
43480;BME280;29067;35.492;-97.520;2023-05-14T06:42:38;97559.53;;;20.28;76.64
43480;BME280;29067;35.492;-97.520;2023-05-14T06:45:06;97551.96;;;21.10;73.66
43480;BME280;29067;35.492;-97.520;2023-05-14T06:47:35;97551.73;;;20.29;73.74
43480;BME280;29067;35.492;-97.520;2023-05-14T06:50:04;97558.96;;;20.23;76.03
43480;BME280;29067;35.492;-97.520;2023-05-14T06:52:32;97555.06;;;19.78;75.44
43480;BME280;29067;35.492;-97.520;2023-05-14T06:55:00;97544.77;;;20.19;75.97
43480;BME280;29067;35.492;-97.520;2023-05-14T06:57:29;97525.80;;;21.09;72.62
43480;BME280;29067;35.492;-97.520;2023-05-14T06:59:57;97523.17;;;20.58;72.58
43480;BME280;29067;35.492;-97.520;2023-05-14T07:02:25;97531.39;;;19.48;76.25
43480;BME280;29067;35.492;-97.520;2023-05-14T07:04:53;97531.59;;;17.43;89.18
43480;BME280;29067;35.492;-97.520;2023-05-14T07:07:21;97526.92;;;18.28;86.55
43480;BME280;29067;35.492;-97.520;2023-05-14T07:09:49;97525.48;;;18.72;83.36
43480;BME280;29067;35.492;-97.520;2023-05-14T07:12:16;97532.46;;;17.77;90.22
43480;BME280;29067;35.492;-97.520;2023-05-14T07:14:44;97539.27;;;18.49;84.99
43480;BME280;29067;35.492;-97.520;2023-05-14T07:17:11;97534.57;;;18.85;83.11
43480;BME280;29067;35.492;-97.520;2023-05-14T07:19:46;97528.85;;;19.27;80.85
43480;BME280;29067;35.492;-97.520;2023-05-14T07:22:16;97527.75;;;18.62;81.53
43480;BME280;29067;35.492;-97.520;2023-05-14T07:24:44;97532.94;;;19.42;78.95
43480;BME280;29067;35.492;-97.520;2023-05-14T07:27:11;97524.87;;;19.96;76.36
43480;BME280;29067;35.492;-97.520;2023-05-14T07:29:40;97518.48;;;19.54;77.98
43480;BME280;29067;35.492;-97.520;2023-05-14T07:32:12;97512.08;;;19.52;78.38
43480;BME280;29067;35.492;-97.520;2023-05-14T07:34:40;97508.14;;;18.07;82.77
43480;BME280;29067;35.492;-97.520;2023-05-14T07:37:08;97507.34;;;17.32;87.31
43480;BME280;29067;35.492;-97.520;2023-05-14T07:39:37;97504.48;;;19.18;79.06
43480;BME280;29067;35.492;-97.520;2023-05-14T07:42:05;97507.90;;;18.52;80.81
43480;BME280;29067;35.492;-97.520;2023-05-14T07:44:34;97508.53;;;19.03;79.89
43480;BME280;29067;35.492;-97.520;2023-05-14T07:47:02;97511.80;;;18.91;80.76
43480;BME280;29067;35.492;-97.520;2023-05-14T07:49:30;97509.72;;;16.95;89.93
43480;BME280;29067;35.492;-97.520;2023-05-14T07:51:58;97505.28;;;19.28;80.87
43480;BME280;29067;35.492;-97.520;2023-05-14T07:54:27;97498.50;;;20.05;77.54
43480;BME280;29067;35.492;-97.520;2023-05-14T07:56:55;97496.09;;;19.84;79.00
43480;BME280;29067;35.492;-97.520;2023-05-14T07:59:23;97495.79;;;18.87;80.34
43480;BME280;29067;35.492;-97.520;2023-05-14T08:01:51;97499.74;;;18.91;82.64
43480;BME280;29067;35.492;-97.520;2023-05-14T08:04:19;97499.48;;;18.43;82.21
43480;BME280;29067;35.492;-97.520;2023-05-14T08:06:48;97499.72;;;19.50;81.24
43480;BME280;29067;35.492;-97.520;2023-05-14T08:09:17;97501.90;;;18.95;82.86
43480;BME280;29067;35.492;-97.520;2023-05-14T08:11:45;97503.08;;;18.60;83.64
43480;BME280;29067;35.492;-97.520;2023-05-14T08:14:14;97505.20;;;19.16;83.41
43480;BME280;29067;35.492;-97.520;2023-05-14T08:16:41;97506.68;;;18.85;82.93
43480;BME280;29067;35.492;-97.520;2023-05-14T08:19:17;97508.89;;;19.94;79.67
43480;BME280;29067;35.492;-97.520;2023-05-14T08:21:50;97506.63;;;19.59;78.37
43480;BME280;29067;35.492;-97.520;2023-05-14T08:24:18;97508.77;;;18.18;83.22
43480;BME280;29067;35.492;-97.520;2023-05-14T08:26:53;97499.84;;;18.90;81.45
43480;BME280;29067;35.492;-97.520;2023-05-14T08:29:27;97497.59;;;18.87;85.81
43480;BME280;29067;35.492;-97.520;2023-05-14T08:32:00;97496.08;;;19.60;78.92
43480;BME280;29067;35.492;-97.520;2023-05-14T08:34:27;97499.49;;;20.08;76.63
43480;BME280;29067;35.492;-97.520;2023-05-14T08:36:57;97507.48;;;20.57;75.02
43480;BME280;29067;35.492;-97.520;2023-05-14T08:39:25;97518.95;;;19.26;78.87
43480;BME280;29067;35.492;-97.520;2023-05-14T08:41:55;97512.36;;;19.85;76.47
43480;BME280;29067;35.492;-97.520;2023-05-14T08:44:27;97505.93;;;20.19;74.92
43480;BME280;29067;35.492;-97.520;2023-05-14T08:47:00;97505.72;;;19.41;79.77
43480;BME280;29067;35.492;-97.520;2023-05-14T08:49:36;97508.12;;;18.72;81.67
43480;BME280;29067;35.492;-97.520;2023-05-14T08:52:06;97511.52;;;19.61;80.84
43480;BME280;29067;35.492;-97.520;2023-05-14T08:54:34;97511.10;;;18.40;83.06
43480;BME280;29067;35.492;-97.520;2023-05-14T08:57:03;97507.91;;;18.78;82.70
43480;BME280;29067;35.492;-97.520;2023-05-14T08:59:32;97503.43;;;18.41;84.28
43480;BME280;29067;35.492;-97.520;2023-05-14T09:02:01;97502.12;;;18.73;82.07
43480;BME280;29067;35.492;-97.520;2023-05-14T09:04:30;97507.80;;;20.38;78.94
43480;BME280;29067;35.492;-97.520;2023-05-14T09:07:00;97500.44;;;20.11;75.59
43480;BME280;29067;35.492;-97.520;2023-05-14T09:09:29;97505.66;;;19.22;75.71
43480;BME280;29067;35.492;-97.520;2023-05-14T09:11:57;97517.89;;;18.84;79.90
43480;BME280;29067;35.492;-97.520;2023-05-14T09:14:24;97519.70;;;19.72;78.15
43480;BME280;29067;35.492;-97.520;2023-05-14T09:16:52;97518.94;;;19.41;80.33
43480;BME280;29067;35.492;-97.520;2023-05-14T09:19:21;97515.18;;;19.31;81.02
43480;BME280;29067;35.492;-97.520;2023-05-14T09:21:49;97511.84;;;18.71;82.50
43480;BME280;29067;35.492;-97.520;2023-05-14T09:24:22;97516.96;;;18.83;84.36
43480;BME280;29067;35.492;-97.520;2023-05-14T09:26:51;97523.78;;;18.23;88.28
43480;BME280;29067;35.492;-97.520;2023-05-14T09:29:19;97517.01;;;19.64;83.79
43480;BME280;29067;35.492;-97.520;2023-05-14T09:31:49;97518.94;;;18.56;84.78
43480;BME280;29067;35.492;-97.520;2023-05-14T09:34:23;97519.30;;;18.25;88.10
43480;BME280;29067;35.492;-97.520;2023-05-14T09:36:55;97518.57;;;19.04;86.73
43480;BME280;29067;35.492;-97.520;2023-05-14T09:39:24;97530.05;;;18.79;86.33
43480;BME280;29067;35.492;-97.520;2023-05-14T09:41:53;97530.32;;;18.81;88.85
43480;BME280;29067;35.492;-97.520;2023-05-14T09:44:22;97520.67;;;18.90;89.75
43480;BME280;29067;35.492;-97.520;2023-05-14T09:46:50;97516.82;;;18.63;89.17
43480;BME280;29067;35.492;-97.520;2023-05-14T09:49:20;97517.37;;;18.66;91.33
43480;BME280;29067;35.492;-97.520;2023-05-14T09:51:49;97512.37;;;19.21;87.29
43480;BME280;29067;35.492;-97.520;2023-05-14T09:54:17;97515.86;;;18.84;93.20
43480;BME280;29067;35.492;-97.520;2023-05-14T09:56:45;97508.07;;;19.79;85.60
43480;BME280;29067;35.492;-97.520;2023-05-14T09:59:13;97502.53;;;19.56;85.81
43480;BME280;29067;35.492;-97.520;2023-05-14T10:01:42;97501.33;;;21.03;80.92
43480;BME280;29067;35.492;-97.520;2023-05-14T10:04:11;97508.97;;;17.98;94.74
43480;BME280;29067;35.492;-97.520;2023-05-14T10:06:39;97501.72;;;19.35;87.42
43480;BME280;29067;35.492;-97.520;2023-05-14T10:09:12;97499.43;;;18.41;88.80
43480;BME280;29067;35.492;-97.520;2023-05-14T10:11:43;97499.91;;;18.92;89.76
43480;BME280;29067;35.492;-97.520;2023-05-14T10:14:16;97503.27;;;19.18;89.66
43480;BME280;29067;35.492;-97.520;2023-05-14T10:16:48;97506.61;;;16.74;100.00
43480;BME280;29067;35.492;-97.520;2023-05-14T10:19:19;97514.84;;;17.87;100.00
43480;BME280;29067;35.492;-97.520;2023-05-14T10:21:51;97520.14;;;18.76;92.66
43480;BME280;29067;35.492;-97.520;2023-05-14T10:24:20;97521.91;;;19.91;86.01
43480;BME280;29067;35.492;-97.520;2023-05-14T10:26:48;97525.27;;;18.64;91.71
43480;BME280;29067;35.492;-97.520;2023-05-14T10:29:16;97527.79;;;18.76;91.60
43480;BME280;29067;35.492;-97.520;2023-05-14T10:31:48;97533.24;;;19.51;88.43
43480;BME280;29067;35.492;-97.520;2023-05-14T10:34:33;97544.87;;;18.47;88.64
43480;BME280;29067;35.492;-97.520;2023-05-14T10:37:03;97549.83;;;18.29;91.24
43480;BME280;29067;35.492;-97.520;2023-05-14T10:39:49;97553.46;;;18.77;89.80
43480;BME280;29067;35.492;-97.520;2023-05-14T10:42:19;97551.25;;;19.16;87.41
43480;BME280;29067;35.492;-97.520;2023-05-14T10:44:51;97562.09;;;18.80;87.15
43480;BME280;29067;35.492;-97.520;2023-05-14T10:47:20;97576.96;;;19.05;88.83
43480;BME280;29067;35.492;-97.520;2023-05-14T10:49:51;97584.84;;;19.43;86.45
43480;BME280;29067;35.492;-97.520;2023-05-14T10:52:19;97592.92;;;18.86;88.99
43480;BME280;29067;35.492;-97.520;2023-05-14T10:54:49;97595.44;;;19.06;87.77
43480;BME280;29067;35.492;-97.520;2023-05-14T10:57:19;97601.11;;;19.21;86.43
43480;BME280;29067;35.492;-97.520;2023-05-14T10:59:48;97604.53;;;18.82;90.29
43480;BME280;29067;35.492;-97.520;2023-05-14T11:03:04;97607.09;;;18.12;89.75
43480;BME280;29067;35.492;-97.520;2023-05-14T11:05:33;97614.10;;;19.34;86.66
43480;BME280;29067;35.492;-97.520;2023-05-14T11:08:04;97621.05;;;19.51;82.37
43480;BME280;29067;35.492;-97.520;2023-05-14T11:10:34;97632.46;;;20.13;83.33
43480;BME280;29067;35.492;-97.520;2023-05-14T11:13:02;97631.39;;;18.97;84.99
43480;BME280;29067;35.492;-97.520;2023-05-14T11:15:30;97622.51;;;18.87;85.81
43480;BME280;29067;35.492;-97.520;2023-05-14T11:17:58;97623.88;;;18.56;86.88
43480;BME280;29067;35.492;-97.520;2023-05-14T11:20:26;97628.90;;;18.08;86.65
43480;BME280;29067;35.492;-97.520;2023-05-14T11:22:59;97639.73;;;19.16;86.08
43480;BME280;29067;35.492;-97.520;2023-05-14T11:25:26;97661.37;;;17.94;86.22
43480;BME280;29067;35.492;-97.520;2023-05-14T11:27:55;97672.74;;;18.79;86.62
43480;BME280;29067;35.492;-97.520;2023-05-14T11:30:23;97683.86;;;17.36;89.27
43480;BME280;29067;35.492;-97.520;2023-05-14T11:32:52;97656.32;;;18.17;89.91
43480;BME280;29067;35.492;-97.520;2023-05-14T11:35:20;97643.08;;;19.96;83.70
43480;BME280;29067;35.492;-97.520;2023-05-14T11:37:50;97635.53;;;19.65;81.22
43480;BME280;29067;35.492;-97.520;2023-05-14T11:40:20;97636.69;;;20.30;79.55
43480;BME280;29067;35.492;-97.520;2023-05-14T11:42:50;97639.23;;;19.32;82.22
43480;BME280;29067;35.492;-97.520;2023-05-14T11:45:25;97632.70;;;18.69;82.93
43480;BME280;29067;35.492;-97.520;2023-05-14T11:47:53;97628.34;;;20.44;80.90
43480;BME280;29067;35.492;-97.520;2023-05-14T11:50:22;97630.44;;;18.78;81.37
43480;BME280;29067;35.492;-97.520;2023-05-14T11:52:54;97633.06;;;18.70;82.55
43480;BME280;29067;35.492;-97.520;2023-05-14T11:55:23;97644.19;;;20.11;79.51
43480;BME280;29067;35.492;-97.520;2023-05-14T11:57:51;97644.53;;;20.09;80.52
43480;BME280;29067;35.492;-97.520;2023-05-14T12:00:19;97642.16;;;18.72;80.71
43480;BME280;29067;35.492;-97.520;2023-05-14T12:02:48;97642.60;;;18.97;81.05
43480;BME280;29067;35.492;-97.520;2023-05-14T12:05:21;97637.99;;;19.41;81.23
43480;BME280;29067;35.492;-97.520;2023-05-14T12:07:49;97630.54;;;20.47;76.95
43480;BME280;29067;35.492;-97.520;2023-05-14T12:10:17;97630.71;;;20.17;76.34
43480;BME280;29067;35.492;-97.520;2023-05-14T12:12:47;97634.80;;;21.28;73.80
43480;BME280;29067;35.492;-97.520;2023-05-14T12:15:15;97643.80;;;19.28;77.14
43480;BME280;29067;35.492;-97.520;2023-05-14T12:17:49;97643.54;;;17.61;86.03
43480;BME280;29067;35.492;-97.520;2023-05-14T12:20:17;97648.54;;;18.66;80.38
43480;BME280;29067;35.492;-97.520;2023-05-14T12:22:44;97649.04;;;18.30;82.94
43480;BME280;29067;35.492;-97.520;2023-05-14T12:25:13;97649.19;;;19.47;78.68
43480;BME280;29067;35.492;-97.520;2023-05-14T12:27:44;97643.74;;;20.15;77.68
43480;BME280;29067;35.492;-97.520;2023-05-14T12:30:13;97646.62;;;19.79;77.12
43480;BME280;29067;35.492;-97.520;2023-05-14T12:32:41;97648.75;;;18.99;78.65
43480;BME280;29067;35.492;-97.520;2023-05-14T12:35:08;97646.99;;;20.28;75.63
43480;BME280;29067;35.492;-97.520;2023-05-14T12:37:37;97641.80;;;21.25;73.78
43480;BME280;29067;35.492;-97.520;2023-05-14T12:40:06;97644.15;;;21.56;72.62
43480;BME280;29067;35.492;-97.520;2023-05-14T12:42:34;97649.41;;;20.35;75.88
43480;BME280;29067;35.492;-97.520;2023-05-14T12:45:02;97654.64;;;19.96;77.41
43480;BME280;29067;35.492;-97.520;2023-05-14T12:47:30;97655.64;;;21.07;74.74
43480;BME280;29067;35.492;-97.520;2023-05-14T12:49:58;97650.28;;;20.28;76.63